createdAt,value
2019-04-03T00:02:09.876Z,99.90
2019-04-03T00:04:40.295Z,99.90
2019-04-03T00:07:10.693Z,99.90
2019-04-03T00:09:41.219Z,99.90
2019-04-03T00:12:12.019Z,99.90
2019-04-03T00:14:43.021Z,99.90
2019-04-03T00:17:15.196Z,99.90
2019-04-03T00:19:47.565Z,99.90
2019-04-03T00:22:17.870Z,99.90
2019-04-03T00:24:48.547Z,99.90
2019-04-03T00:27:20.688Z,99.90
2019-04-03T00:29:52.154Z,99.90
2019-04-03T00:32:23.381Z,99.90
2019-04-03T00:34:54.061Z,99.90
2019-04-03T00:37:25.441Z,99.90
2019-04-03T00:40:00.313Z,99.90
2019-04-03T00:42:30.743Z,99.90
2019-04-03T00:45:01.652Z,99.90
2019-04-03T00:47:32.077Z,99.90
2019-04-03T00:50:02.547Z,99.90
2019-04-03T00:52:33.337Z,99.90
2019-04-03T00:55:04.056Z,99.90
2019-04-03T00:57:34.447Z,99.90
2019-04-03T01:00:08.513Z,99.90
2019-04-03T01:02:38.920Z,99.90
2019-04-03T01:05:09.477Z,99.90
2019-04-03T01:07:40.092Z,99.90
2019-04-03T01:10:10.621Z,99.90
2019-04-03T01:12:41.028Z,99.90
2019-04-03T01:15:11.586Z,99.90
2019-04-03T01:17:42.218Z,99.90
2019-04-03T01:20:13.278Z,99.90
2019-04-03T01:22:43.705Z,99.90
2019-04-03T01:25:14.119Z,99.90
2019-04-03T01:27:44.508Z,99.90
2019-04-03T01:30:15.384Z,99.90
2019-04-03T01:32:46.805Z,99.90
2019-04-03T01:35:17.985Z,99.90
2019-04-03T01:37:49.903Z,99.90
2019-04-03T01:40:21.199Z,99.90
2019-04-03T01:42:52.824Z,99.90
2019-04-03T01:45:25.903Z,99.90
2019-04-03T01:47:58.180Z,99.90
2019-04-03T01:50:30.120Z,99.90
2019-04-03T01:53:02.403Z,99.90
2019-04-03T01:55:34.400Z,99.90
2019-04-03T01:58:06.738Z,99.90
2019-04-03T02:00:37.661Z,99.90
2019-04-03T02:03:10.268Z,99.90
2019-04-03T02:05:43.231Z,99.90
2019-04-03T02:08:14.562Z,99.90
2019-04-03T02:10:48.223Z,99.90
2019-04-03T02:13:18.287Z,99.90
2019-04-03T02:15:48.786Z,99.90
2019-04-03T02:18:20.170Z,99.90
2019-04-03T02:20:50.869Z,99.90
2019-04-03T02:23:21.245Z,99.90
2019-04-03T02:25:51.711Z,99.90
2019-04-03T02:28:22.344Z,99.90
2019-04-03T02:30:52.714Z,99.90
2019-04-03T02:33:23.106Z,99.90
2019-04-03T02:35:53.877Z,99.90
2019-04-03T02:38:34.254Z,99.90
2019-04-03T02:41:05.175Z,99.90
2019-04-03T02:43:35.993Z,99.90
2019-04-03T02:46:06.849Z,99.90
2019-04-03T02:48:38.415Z,99.90
2019-04-03T02:51:09.559Z,99.90
2019-04-03T02:53:40.198Z,99.90
2019-04-03T02:56:13.024Z,99.90
2019-04-03T02:58:42.961Z,99.90
2019-04-03T03:01:13.351Z,99.90
2019-04-03T03:03:43.794Z,99.90
2019-04-03T03:06:14.376Z,99.90
2019-04-03T03:08:44.840Z,99.90
2019-04-03T03:11:15.729Z,99.90
2019-04-03T03:13:47.844Z,99.90
2019-04-03T03:16:18.831Z,99.90
2019-04-03T03:18:50.091Z,99.90
2019-04-03T03:21:20.930Z,99.90
2019-04-03T03:23:55.441Z,99.90
2019-04-03T03:26:23.730Z,99.90
2019-04-03T03:28:54.279Z,99.90
2019-04-03T03:31:57.298Z,99.90
2019-04-03T03:34:02.968Z,99.90
2019-04-03T03:36:30.691Z,99.90
2019-04-03T03:39:02.075Z,99.90
2019-04-03T03:41:33.505Z,99.90
2019-04-03T03:44:04.711Z,99.90
2019-04-03T03:46:36.337Z,99.90
2019-04-03T03:49:07.616Z,99.90
2019-04-03T03:51:39.458Z,99.90
2019-04-03T03:54:11.088Z,99.90
2019-04-03T03:56:41.706Z,99.90
2019-04-03T03:59:16.219Z,99.90
2019-04-03T04:01:44.934Z,99.90
2019-04-03T04:04:16.175Z,99.90
2019-04-03T04:06:47.345Z,99.90
2019-04-03T04:09:18.899Z,99.90
2019-04-03T04:11:49.730Z,99.90
2019-04-03T04:14:22.834Z,99.90
2019-04-03T04:16:52.924Z,99.90
2019-04-03T04:19:23.573Z,99.90
2019-04-03T04:21:55.853Z,99.90
2019-04-03T04:24:28.057Z,99.90
2019-04-03T04:26:58.929Z,99.90
2019-04-03T04:29:29.393Z,99.90
2019-04-03T04:32:00.577Z,99.90
2019-04-03T04:34:30.969Z,99.90
2019-04-03T04:37:02.586Z,99.90
2019-04-03T04:39:34.083Z,99.90
2019-04-03T04:42:04.755Z,99.90
2019-04-03T04:44:35.181Z,99.90
2019-04-03T04:47:05.666Z,99.90
2019-04-03T04:49:36.154Z,99.90
2019-04-03T04:52:06.691Z,99.90
2019-04-03T04:54:37.122Z,99.90
2019-04-03T04:57:08.964Z,99.90
2019-04-03T04:59:40.094Z,99.90
2019-04-03T05:02:10.526Z,99.90
2019-04-03T05:04:40.946Z,99.90
2019-04-03T05:07:11.467Z,99.90
2019-04-03T05:09:41.913Z,99.90
2019-04-03T05:12:12.989Z,99.90
2019-04-03T05:14:43.898Z,99.90
2019-04-03T05:17:14.325Z,99.90
2019-04-03T05:19:44.986Z,99.90
2019-04-03T05:22:15.436Z,99.90
2019-04-03T05:24:46.193Z,99.90
2019-04-03T05:27:16.692Z,99.90
2019-04-03T05:29:47.393Z,99.90
2019-04-03T05:32:17.821Z,99.90
2019-04-03T05:34:48.234Z,99.90
2019-04-03T05:37:20.218Z,99.90
2019-04-03T05:39:51.626Z,99.90
2019-04-03T05:42:22.189Z,99.90
2019-04-03T05:44:52.878Z,99.90
2019-04-03T05:47:23.459Z,99.90
2019-04-03T05:49:56.106Z,99.90
2019-04-03T05:52:26.222Z,99.90
2019-04-03T05:54:56.976Z,99.90
2019-04-03T05:57:29.640Z,99.90
2019-04-03T06:00:02.065Z,99.90
2019-04-03T06:02:32.506Z,99.90
2019-04-03T06:05:06.283Z,99.90
2019-04-03T06:07:35.605Z,99.90
2019-04-03T06:10:06.575Z,99.90
2019-04-03T06:12:37.821Z,99.90
2019-04-03T06:15:09.739Z,99.90
2019-04-03T06:17:40.737Z,99.90
2019-04-03T06:20:11.430Z,99.90
2019-04-03T06:22:42.059Z,99.90
2019-04-03T06:25:13.928Z,99.90
2019-04-03T06:27:46.262Z,99.90
2019-04-03T06:30:17.656Z,99.90
2019-04-03T06:32:48.084Z,99.90
2019-04-03T06:35:19.988Z,99.90
2019-04-03T06:37:52.533Z,99.90
2019-04-03T06:40:22.861Z,99.90
2019-04-03T06:42:53.637Z,99.90
2019-04-03T06:45:26.453Z,99.90
2019-04-03T06:47:56.456Z,99.90
2019-04-03T06:50:26.914Z,99.90
2019-04-03T06:52:58.644Z,99.90
2019-04-03T06:55:29.202Z,99.90
2019-04-03T06:58:00.933Z,99.90
2019-04-03T07:00:31.493Z,99.90
2019-04-03T07:03:03.888Z,99.90
2019-04-03T07:05:34.276Z,99.90
2019-04-03T07:08:06.396Z,99.90
2019-04-03T07:10:37.031Z,99.90
2019-04-03T07:13:07.863Z,99.90
2019-04-03T07:15:38.475Z,99.90
2019-04-03T07:18:08.960Z,99.90
2019-04-03T07:20:39.697Z,99.90
2019-04-03T07:23:10.560Z,99.90
2019-04-03T07:25:41.106Z,99.90
2019-04-03T07:28:12.649Z,99.90
2019-04-03T07:30:45.188Z,99.90
2019-04-03T07:33:18.594Z,99.90
2019-04-03T07:35:49.637Z,99.90
2019-04-03T07:38:21.861Z,99.90
2019-04-03T07:40:52.451Z,99.90
2019-04-03T07:43:26.130Z,99.90
2019-04-03T07:45:55.295Z,99.90
2019-04-03T07:48:25.721Z,99.90
2019-04-03T07:50:56.230Z,99.70
2019-04-03T07:53:26.750Z,93.60
2019-04-03T07:55:57.316Z,94.30
2019-04-03T07:58:30.676Z,98.20
2019-04-03T08:00:59.867Z,99.70
2019-04-03T08:03:30.300Z,98.60
2019-04-03T08:06:01.077Z,94.90
2019-04-03T08:08:32.811Z,89.30
2019-04-03T08:11:03.685Z,78.10
2019-04-03T08:13:34.142Z,76.50
2019-04-03T08:16:04.866Z,76.20
2019-04-03T08:18:35.736Z,74.80
2019-04-03T08:21:06.419Z,74.10
2019-04-03T08:23:37.632Z,74.60
2019-04-03T08:26:11.257Z,70.10
2019-04-03T08:28:40.233Z,64.10
2019-04-03T08:31:11.873Z,61.70
2019-04-03T08:33:42.964Z,63.30
2019-04-03T08:36:23.140Z,64.00
2019-04-03T08:38:45.650Z,60.90
2019-04-03T08:41:16.526Z,61.10
2019-04-03T08:43:47.334Z,62.40
2019-04-03T08:46:17.691Z,60.90
2019-04-03T08:48:48.067Z,63.00
2019-04-03T08:51:18.757Z,61.50
2019-04-03T08:53:49.598Z,65.70
2019-04-03T08:56:20.248Z,63.40
2019-04-03T08:58:50.650Z,64.40
2019-04-03T09:01:21.089Z,63.20
2019-04-03T09:03:51.507Z,60.20
2019-04-03T09:06:22.395Z,59.80
2019-04-03T09:08:53.643Z,60.50
2019-04-03T09:11:25.029Z,64.90
2019-04-03T09:13:55.931Z,61.60
2019-04-03T09:16:26.840Z,59.30
2019-04-03T09:18:57.365Z,59.70
2019-04-03T09:21:27.753Z,59.00
2019-04-03T09:23:59.232Z,55.90
2019-04-03T09:26:29.944Z,57.60
2019-04-03T09:29:00.504Z,58.70
2019-04-03T09:31:30.938Z,59.20
2019-04-03T09:34:01.409Z,58.10
2019-04-03T09:36:32.884Z,59.10
2019-04-03T09:39:06.942Z,54.00
2019-04-03T09:41:37.437Z,51.20
2019-04-03T09:44:07.905Z,50.60
2019-04-03T09:46:38.269Z,48.00
2019-04-03T09:49:10.101Z,45.20
2019-04-03T09:51:40.906Z,45.90
2019-04-03T09:54:11.674Z,44.60
2019-04-03T09:56:57.183Z,42.90
2019-04-03T09:59:16.150Z,41.90
2019-04-03T10:01:47.869Z,42.90
2019-04-03T10:04:20.818Z,42.90
2019-04-03T10:06:50.711Z,38.90
2019-04-03T10:09:21.944Z,36.90
2019-04-03T10:11:52.650Z,42.00
2019-04-03T10:14:23.486Z,43.70
2019-04-03T10:16:54.252Z,46.80
2019-04-03T10:19:24.810Z,46.30
2019-04-03T10:21:55.314Z,42.60
2019-04-03T10:24:25.721Z,43.70
2019-04-03T10:26:56.086Z,43.00
2019-04-03T10:29:26.553Z,41.60
2019-04-03T10:31:58.004Z,39.60
2019-04-03T10:34:28.500Z,38.00
2019-04-03T10:36:59.240Z,40.50
2019-04-03T10:39:30.746Z,39.00
2019-04-03T10:42:01.707Z,36.80
2019-04-03T10:44:32.291Z,37.20
2019-04-03T10:47:02.682Z,36.10
2019-04-03T10:49:33.074Z,36.40
2019-04-03T10:52:03.428Z,36.50
2019-04-03T10:54:33.838Z,35.10
2019-04-03T10:57:04.392Z,36.30
2019-04-03T10:59:34.795Z,35.40
2019-04-03T11:02:05.620Z,34.20
2019-04-03T11:04:36.353Z,34.00
2019-04-03T11:07:06.894Z,34.50
2019-04-03T11:09:37.313Z,36.10
2019-04-03T11:12:10.127Z,35.70
2019-04-03T11:14:40.922Z,34.40
2019-04-03T11:17:11.529Z,34.40
2019-04-03T11:19:44.144Z,34.90
2019-04-03T11:22:16.375Z,36.30
2019-04-03T11:24:47.597Z,37.00
2019-04-03T11:27:18.460Z,35.20
2019-04-03T11:29:49.017Z,37.40
2019-04-03T11:32:19.743Z,36.00
2019-04-03T11:34:53.617Z,34.20
2019-04-03T11:37:23.605Z,32.80
2019-04-03T11:40:02.331Z,33.60
2019-04-03T11:42:29.465Z,35.80
2019-04-03T11:44:59.414Z,34.70
2019-04-03T11:47:30.130Z,36.60
2019-04-03T11:50:01.067Z,38.30
2019-04-03T11:52:31.517Z,35.00
2019-04-03T11:55:01.926Z,34.20
2019-04-03T11:57:36.215Z,33.50
2019-04-03T12:00:13.449Z,35.80
2019-04-03T12:02:44.601Z,34.90
2019-04-03T12:05:20.803Z,34.70
2019-04-03T12:07:50.182Z,34.90
2019-04-03T12:10:20.879Z,36.60
2019-04-03T12:12:51.734Z,35.80
2019-04-03T12:15:22.436Z,35.80
2019-04-03T12:17:53.329Z,33.70
2019-04-03T12:20:24.016Z,34.00
2019-04-03T12:22:55.192Z,33.00
2019-04-03T12:25:26.482Z,33.60
2019-04-03T12:27:57.205Z,34.00
2019-04-03T12:30:28.102Z,34.70
2019-04-03T12:33:00.262Z,37.20
2019-04-03T12:35:30.886Z,38.20
2019-04-03T12:38:01.428Z,36.40
2019-04-03T12:40:32.836Z,37.80
2019-04-03T12:43:03.420Z,40.80
2019-04-03T12:45:33.922Z,39.80
2019-04-03T12:48:04.697Z,41.30
2019-04-03T12:50:35.746Z,43.40
2019-04-03T12:53:06.376Z,44.30
2019-04-03T12:55:37.152Z,44.50
2019-04-03T12:58:07.723Z,45.50
2019-04-03T13:00:38.220Z,46.50
2019-04-03T13:03:10.317Z,47.00
2019-04-03T13:05:40.786Z,48.00
2019-04-03T13:08:11.261Z,47.00
2019-04-03T13:10:45.165Z,47.40
2019-04-03T13:13:15.107Z,46.90
2019-04-03T13:15:45.647Z,48.90
2019-04-03T13:18:16.723Z,47.50
2019-04-03T13:20:47.181Z,48.30
2019-04-03T13:23:17.555Z,48.80
2019-04-03T13:25:59.855Z,48.50
2019-04-03T13:28:31.594Z,48.30
2019-04-03T13:31:02.254Z,49.30
2019-04-03T13:33:32.642Z,49.30
2019-04-03T13:36:03.043Z,48.90
2019-04-03T13:38:33.672Z,49.10
2019-04-03T13:41:11.289Z,49.10
2019-04-03T13:43:42.547Z,49.70
2019-04-03T13:46:13.319Z,50.30
2019-04-03T13:48:44.954Z,48.40
2019-04-03T13:51:16.166Z,48.90
2019-04-03T13:53:47.643Z,50.90
2019-04-03T13:56:18.595Z,51.40
2019-04-03T13:58:52.640Z,50.10
2019-04-03T14:01:22.127Z,49.80
2019-04-03T14:03:52.513Z,50.60
2019-04-03T14:06:24.117Z,51.50
2019-04-03T14:08:54.548Z,52.20
2019-04-03T14:11:25.353Z,51.70
2019-04-03T14:13:56.297Z,52.30
2019-04-03T14:16:26.764Z,53.70
2019-04-03T14:18:57.778Z,53.80
2019-04-03T14:21:28.765Z,53.10
2019-04-03T14:24:00.218Z,53.30
2019-04-03T14:26:30.874Z,53.10
2019-04-03T14:29:01.392Z,52.50
2019-04-03T14:31:36.008Z,53.00
2019-04-03T14:34:04.341Z,53.10
2019-04-03T14:36:34.753Z,54.30
2019-04-03T14:39:08.950Z,54.50
2019-04-03T14:41:39.613Z,54.30
2019-04-03T14:44:10.025Z,54.60
2019-04-03T14:46:41.830Z,55.70
2019-04-03T14:49:12.255Z,55.00
2019-04-03T14:51:43.467Z,57.10
2019-04-03T14:54:15.309Z,53.90
2019-04-03T14:56:45.725Z,55.30
2019-04-03T14:59:16.120Z,56.30
2019-04-03T15:01:46.549Z,55.50
2019-04-03T15:04:17.263Z,57.20
2019-04-03T15:06:49.149Z,56.30
2019-04-03T15:09:20.337Z,55.80
2019-04-03T15:11:50.723Z,55.50
2019-04-03T15:14:22.180Z,56.10
2019-04-03T15:16:53.454Z,56.00
2019-04-03T15:19:24.030Z,56.10
2019-04-03T15:21:56.745Z,56.40
2019-04-03T15:24:26.874Z,56.10
2019-04-03T15:26:57.526Z,56.40
2019-04-03T15:29:28.343Z,55.20
2019-04-03T15:31:59.189Z,55.00
2019-04-03T15:34:29.654Z,56.80
2019-04-03T15:37:00.710Z,55.80
2019-04-03T15:39:31.325Z,55.90
2019-04-03T15:42:01.984Z,55.00
2019-04-03T15:44:32.417Z,55.20
2019-04-03T15:47:04.287Z,54.60
2019-04-03T15:49:35.510Z,55.10
2019-04-03T15:52:06.362Z,56.30
2019-04-03T15:54:45.096Z,55.70
2019-04-03T15:57:18.799Z,56.50
2019-04-03T15:59:47.989Z,56.70
2019-04-03T16:02:18.579Z,57.50
2019-04-03T16:04:52.069Z,57.70
2019-04-03T16:07:23.257Z,58.00
2019-04-03T16:09:58.528Z,58.00
2019-04-03T16:12:29.230Z,57.50
2019-04-03T16:14:59.646Z,57.90
2019-04-03T16:17:38.425Z,58.60
2019-04-03T16:20:10.611Z,59.60
2019-04-03T16:22:41.666Z,59.10
2019-04-03T16:25:16.261Z,58.70
2019-04-03T16:27:44.674Z,59.00
2019-04-03T16:30:19.326Z,60.10
2019-04-03T16:32:49.641Z,59.20
2019-04-03T16:35:21.693Z,59.60
2019-04-03T16:37:54.902Z,59.90
2019-04-03T16:40:25.175Z,60.60
2019-04-03T16:42:56.545Z,60.90
2019-04-03T16:45:27.038Z,61.10
2019-04-03T16:47:57.944Z,61.80
2019-04-03T16:50:28.754Z,61.80
2019-04-03T16:53:01.496Z,62.50
2019-04-03T16:55:32.209Z,62.90
2019-04-03T16:58:02.793Z,62.90
2019-04-03T17:00:35.854Z,65.80
2019-04-03T17:03:06.393Z,64.80
2019-04-03T17:05:36.855Z,64.60
2019-04-03T17:08:10.014Z,66.10
2019-04-03T17:10:41.153Z,66.60
2019-04-03T17:13:12.020Z,67.20
2019-04-03T17:15:42.425Z,68.60
2019-04-03T17:18:13.122Z,69.30
2019-04-03T17:20:48.953Z,70.10
2019-04-03T17:23:18.091Z,72.50
2019-04-03T17:25:51.613Z,75.50
2019-04-03T17:28:21.957Z,76.70
2019-04-03T17:30:52.893Z,79.20
2019-04-03T17:33:23.427Z,81.80
2019-04-03T17:35:54.575Z,85.50
2019-04-03T17:38:25.182Z,86.70
2019-04-03T17:40:55.623Z,87.70
2019-04-03T17:43:26.060Z,89.70
2019-04-03T17:45:56.490Z,87.00
2019-04-03T17:48:26.901Z,91.10
2019-04-03T17:50:57.342Z,93.10
2019-04-03T17:53:28.260Z,93.50
2019-04-03T17:55:58.704Z,95.30
2019-04-03T17:58:29.189Z,98.10
2019-04-03T18:00:59.670Z,99.40
2019-04-03T18:03:30.166Z,99.10
2019-04-03T18:06:00.927Z,98.50
2019-04-03T18:08:32.794Z,99.90
2019-04-03T18:11:04.066Z,99.90
2019-04-03T18:13:34.789Z,99.90
2019-04-03T18:16:05.394Z,99.90
2019-04-03T18:18:35.963Z,99.90
2019-04-03T18:21:06.603Z,99.90
2019-04-03T18:23:37.427Z,99.90
2019-04-03T18:26:08.022Z,99.90
2019-04-03T18:28:42.565Z,99.90
2019-04-03T18:31:13.628Z,99.90
2019-04-03T18:33:44.555Z,99.90
2019-04-03T18:36:15.253Z,99.90
2019-04-03T18:38:45.682Z,99.90
2019-04-03T18:41:16.994Z,99.90
2019-04-03T18:43:48.295Z,99.90
2019-04-03T18:46:31.245Z,99.90
2019-04-03T18:48:54.512Z,99.90
2019-04-03T18:51:23.230Z,99.90
2019-04-03T18:53:53.735Z,99.90
2019-04-03T18:56:24.366Z,99.90
2019-04-03T18:58:55.687Z,99.90
2019-04-03T19:01:26.386Z,99.90
2019-04-03T19:03:56.833Z,99.90
2019-04-03T19:06:27.878Z,99.90
2019-04-03T19:09:09.192Z,99.90
2019-04-03T19:11:34.390Z,99.90
2019-04-03T19:14:04.727Z,99.90
2019-04-03T19:16:44.320Z,99.90
2019-04-03T19:19:08.758Z,99.90
2019-04-03T19:21:39.214Z,99.90
2019-04-03T19:24:09.671Z,99.90
2019-04-03T19:26:40.380Z,99.90
2019-04-03T19:29:11.956Z,99.90
2019-04-03T19:31:42.815Z,99.90
2019-04-03T19:34:17.681Z,99.90
2019-04-03T19:36:45.698Z,99.90
2019-04-03T19:39:16.905Z,99.90
2019-04-03T19:41:48.208Z,99.90
2019-04-03T19:44:19.038Z,99.90
2019-04-03T19:46:49.955Z,99.90
2019-04-03T19:49:21.410Z,99.90
2019-04-03T19:51:51.937Z,99.90
2019-04-03T19:54:23.604Z,99.90
2019-04-03T19:56:56.448Z,99.90
2019-04-03T19:59:29.937Z,99.90
2019-04-03T20:01:59.851Z,99.90
2019-04-03T20:04:30.389Z,99.90
2019-04-03T20:07:01.989Z,99.90
2019-04-03T20:09:32.906Z,99.90
2019-04-03T20:12:06.845Z,99.90
2019-04-03T20:14:35.749Z,99.90
2019-04-03T20:17:06.223Z,99.90
2019-04-03T20:19:36.655Z,99.90
2019-04-03T20:22:07.627Z,99.90
2019-04-03T20:24:39.651Z,99.90
2019-04-03T20:27:10.165Z,99.90
2019-04-03T20:29:40.646Z,99.90
2019-04-03T20:32:11.138Z,99.90
2019-04-03T20:34:44.411Z,99.90
2019-04-03T20:37:15.323Z,99.90
2019-04-03T20:39:45.909Z,99.90
2019-04-03T20:42:16.581Z,99.90
2019-04-03T20:44:48.639Z,99.90
2019-04-03T20:47:19.218Z,99.90
2019-04-03T20:49:49.641Z,99.90
2019-04-03T20:52:20.334Z,99.90
2019-04-03T20:54:52.793Z,99.90
2019-04-03T20:57:22.927Z,99.90
2019-04-03T21:00:02.080Z,99.90
2019-04-03T21:02:25.556Z,99.90
2019-04-03T21:04:56.312Z,99.90
2019-04-03T21:07:26.845Z,99.90
2019-04-03T21:10:00.553Z,99.90
2019-04-03T21:12:29.605Z,99.90
2019-04-03T21:15:08.233Z,99.90
2019-04-03T21:17:33.139Z,99.90
2019-04-03T21:20:04.191Z,99.90
2019-04-03T21:22:34.907Z,99.90
2019-04-03T21:25:06.095Z,99.90
2019-04-03T21:27:39.811Z,99.90
2019-04-03T21:30:11.281Z,99.90
2019-04-03T21:32:41.739Z,99.90
2019-04-03T21:35:12.399Z,99.90
2019-04-03T21:37:43.077Z,99.90
2019-04-03T21:40:15.085Z,99.90
2019-04-03T21:42:45.909Z,99.90
2019-04-03T21:45:16.398Z,99.90
2019-04-03T21:47:46.842Z,99.90
2019-04-03T21:50:19.365Z,99.90
2019-04-03T21:52:49.542Z,99.90
2019-04-03T21:55:20.006Z,99.90
2019-04-03T21:57:50.417Z,99.90
2019-04-03T22:00:46.510Z,99.90
2019-04-03T22:03:19.741Z,99.90
2019-04-03T22:05:50.777Z,99.90
2019-04-03T22:08:21.178Z,99.90
2019-04-03T22:10:51.638Z,99.90
2019-04-03T22:13:22.040Z,99.90
2019-04-03T22:15:52.473Z,99.90
2019-04-03T22:18:23.731Z,99.90
2019-04-03T22:20:54.677Z,99.90
2019-04-03T22:23:25.134Z,99.90
2019-04-03T22:25:55.610Z,99.90
2019-04-03T22:28:26.136Z,99.90
2019-04-03T22:30:56.596Z,99.90
2019-04-03T22:33:27.848Z,99.90
2019-04-03T22:35:58.818Z,99.90
2019-04-03T22:38:29.317Z,99.90
2019-04-03T22:40:59.688Z,99.90
2019-04-03T22:43:30.110Z,99.90
2019-04-03T22:46:00.684Z,99.90
2019-04-03T22:48:31.101Z,99.90
2019-04-03T22:51:02.294Z,99.90
2019-04-03T22:53:35.860Z,99.90
2019-04-03T22:56:06.322Z,99.90
2019-04-03T22:58:36.842Z,99.90
2019-04-03T23:01:07.814Z,99.90
2019-04-03T23:03:38.231Z,99.90
2019-04-03T23:06:08.774Z,99.90
2019-04-03T23:08:39.208Z,99.90
2019-04-03T23:11:09.758Z,99.90
2019-04-03T23:13:40.291Z,99.90
2019-04-03T23:16:11.559Z,99.90
2019-04-03T23:18:42.646Z,99.90
2019-04-03T23:21:13.112Z,99.90
2019-04-03T23:23:43.931Z,99.90
2019-04-03T23:26:14.909Z,99.90
2019-04-03T23:28:45.444Z,99.90
2019-04-03T23:31:16.232Z,99.90
2019-04-03T23:33:47.826Z,99.90
2019-04-03T23:36:18.784Z,99.90
2019-04-03T23:38:50.093Z,99.90
2019-04-03T23:41:20.747Z,99.90
2019-04-03T23:43:51.232Z,99.90
2019-04-03T23:46:21.978Z,99.90
2019-04-03T23:48:52.494Z,99.90
2019-04-03T23:51:23.735Z,99.90
2019-04-03T23:53:55.122Z,99.90
2019-04-03T23:56:25.583Z,99.90
2019-04-03T23:58:55.998Z,99.90
